Time;durP1;ratioP1;P1;durP2;ratioP2;P2;SDS_P1;SDS_P2;PMS_P1;PMS_P2;Temp;Humidity;BMP_temperature;BMP_pressure;BME280_temperature;BME280_humidity;BME280_pressure;Samples;Min_cycle;Max_cycle;Signal;HPM_P1;HPM_P2
2024/03/18 00:00:12;;;;;;;19.35;8.85;;;;;;;-141.50;100.00;63355.56;5014730;28;20041;-79
2024/03/18 00:02:38;;;;;;;18.80;8.35;;;;;;;-141.50;100.00;63355.56;5028221;28;20486;-80
2024/03/18 00:05:04;;;;;;;18.83;8.95;;;;;;;-141.50;100.00;63355.56;5030165;28;20044;-80
2024/03/18 00:07:31;;;;;;;16.80;8.23;;;;;;;-141.50;100.00;63355.56;5015766;28;20049;-83
2024/03/18 00:09:56;;;;;;;21.38;8.63;;;;;;;-141.50;100.00;63355.56;5033851;28;20041;-83
2024/03/18 00:12:22;;;;;;;21.00;8.88;;;;;;;-141.50;100.00;63355.56;5015867;28;20411;-83
2024/03/18 00:14:49;;;;;;;17.50;8.82;;;;;;;-141.50;100.00;63355.56;5044472;28;20059;-80
2024/03/18 00:17:14;;;;;;;15.63;8.07;;;;;;;-141.50;100.00;63355.56;5017435;28;20136;-83
2024/03/18 00:19:40;;;;;;;22.67;8.85;;;;;;;-141.50;100.00;63355.56;5034320;28;20131;-82
2024/03/18 00:22:06;;;;;;;21.95;9.45;;;;;;;-141.50;100.00;63355.56;5021558;28;20456;-81
2024/03/18 00:24:33;;;;;;;20.50;8.93;;;;;;;-141.50;100.00;63355.56;5029654;28;20565;-82
2024/03/18 00:26:59;;;;;;;20.05;9.63;;;;;;;-141.50;100.00;63355.56;5036368;28;20526;-80
2024/03/18 00:29:25;;;;;;;22.08;9.75;;;;;;;-141.50;100.00;63355.56;5037251;28;20040;-84
2024/03/18 00:31:50;;;;;;;19.88;9.63;;;;;;;-141.50;100.00;63355.56;5033821;28;20048;-82
2024/03/18 00:34:18;;;;;;;21.80;9.43;;;;;;;-141.50;100.00;63355.56;5017257;28;20055;-82
2024/03/18 00:36:44;;;;;;;24.25;9.55;;;;;;;-141.50;100.00;63355.56;5024483;28;20053;-80
2024/03/18 00:39:11;;;;;;;17.90;8.95;;;;;;;-141.50;100.00;63355.56;5010555;28;20522;-81
2024/03/18 00:41:46;;;;;;;20.85;9.25;;;;;;;-141.50;100.00;63355.56;4982277;28;20111;-80
2024/03/18 00:44:15;;;;;;;19.65;8.80;;;;;;;-141.50;100.00;63355.56;5033347;28;20109;-80
2024/03/18 00:46:44;;;;;;;19.60;9.23;;;;;;;-141.50;100.00;63355.56;5030602;28;20049;-80
2024/03/18 00:49:11;;;;;;;24.88;9.07;;;;;;;-141.50;100.00;63355.56;5032921;28;20056;-81
2024/03/18 00:51:43;;;;;;;21.52;9.05;;;;;;;-141.50;100.00;63355.56;5031681;28;20057;-81
2024/03/18 00:54:09;;;;;;;21.33;9.27;;;;;;;-141.50;100.00;63355.56;5033628;28;20053;-81
2024/03/18 00:56:39;;;;;;;20.25;9.10;;;;;;;-141.50;100.00;63355.56;5035270;28;20066;-80
2024/03/18 00:59:06;;;;;;;22.60;8.93;;;;;;;-141.50;100.00;63355.56;5033578;28;20511;-81
2024/03/18 01:01:32;;;;;;;19.27;8.55;;;;;;;-141.50;100.00;63355.56;5018040;28;20057;-80
2024/03/18 01:04:03;;;;;;;18.70;9.15;;;;;;;-141.50;100.00;63355.56;5031647;28;20049;-80
2024/03/18 01:06:28;;;;;;;17.77;8.02;;;;;;;-141.50;100.00;63355.56;5035682;28;20462;-80
2024/03/18 01:08:57;;;;;;;19.08;8.77;;;;;;;-141.50;100.00;63355.56;5036699;28;20053;-79
2024/03/18 01:11:23;;;;;;;18.35;8.75;;;;;;;-141.50;100.00;63355.56;5048402;28;20120;-79
2024/03/18 01:13:49;;;;;;;20.70;8.63;;;;;;;-141.50;100.00;63355.56;5034620;28;20485;-80
2024/03/18 01:16:26;;;;;;;19.05;8.70;;;;;;;-141.50;100.00;63355.56;5017076;28;20110;-80
2024/03/18 01:18:53;;;;;;;19.65;8.70;;;;;;;-141.50;100.00;63355.56;5030003;28;20046;-81
2024/03/18 01:21:20;;;;;;;21.30;8.85;;;;;;;-141.50;100.00;63355.56;5033752;28;20060;-83
2024/03/18 01:23:50;;;;;;;21.27;8.27;;;;;;;-141.50;100.00;63355.56;5032571;28;20078;-82
2024/03/18 01:26:18;;;;;;;17.27;7.75;;;;;;;-141.50;100.00;63355.56;5037206;28;20061;-80
2024/03/18 01:28:44;;;;;;;16.88;8.18;;;;;;;-141.50;100.00;63355.56;5034714;28;20514;-82
2024/03/18 01:31:10;;;;;;;24.10;9.10;;;;;;;-141.50;100.00;63355.56;5018101;28;20056;-81
2024/03/18 01:33:36;;;;;;;17.25;8.27;;;;;;;-141.50;100.00;63355.56;5006757;28;20050;-81
2024/03/18 01:36:02;;;;;;;22.08;9.32;;;;;;;-141.50;100.00;63355.56;5030296;28;20056;-81
2024/03/18 01:38:29;;;;;;;18.65;8.02;;;;;;;-141.50;100.00;63355.56;5032332;28;20053;-82
2024/03/18 01:40:55;;;;;;;19.17;8.40;;;;;;;-141.50;100.00;63355.56;5030233;28;20454;-80
2024/03/18 01:43:23;;;;;;;18.77;8.32;;;;;;;-141.50;100.00;63355.56;5020870;28;20053;-81
2024/03/18 01:45:49;;;;;;;19.23;8.48;;;;;;;-141.50;100.00;63355.56;5015470;28;20048;-81
2024/03/18 01:48:15;;;;;;;18.40;8.38;;;;;;;-141.50;100.00;63355.56;5034022;28;20052;-81
2024/03/18 01:50:42;;;;;;;20.58;8.07;;;;;;;-141.50;100.00;63355.56;5021160;28;20121;-81
2024/03/18 01:53:13;;;;;;;18.83;7.78;;;;;;;-141.50;100.00;63355.56;5034920;28;20106;-82
2024/03/18 01:55:41;;;;;;;18.98;7.78;;;;;;;-141.50;100.00;63355.56;5035454;28;20055;-80
2024/03/18 01:58:07;;;;;;;21.08;8.30;;;;;;;-141.50;100.00;63355.56;5048883;28;20403;-82
2024/03/18 02:00:37;;;;;;;21.65;8.20;;;;;;;-141.50;100.00;63355.56;5031946;28;20044;-81
2024/03/18 02:03:07;;;;;;;16.35;8.20;;;;;;;-141.50;100.00;63355.56;5009434;28;20048;-82
2024/03/18 02:05:35;;;;;;;17.60;8.13;;;;;;;-141.50;100.00;63355.56;5022886;28;20515;-80
2024/03/18 02:08:02;;;;;;;17.90;7.60;;;;;;;-141.50;100.00;63355.56;5029530;28;20104;-80
2024/03/18 02:10:29;;;;;;;17.05;8.35;;;;;;;-141.50;100.00;63355.56;5033029;28;20080;-80
2024/03/18 02:13:02;;;;;;;20.38;7.45;;;;;;;-141.50;100.00;63355.56;5029952;28;20090;-81
2024/03/18 02:15:32;;;;;;;20.95;7.80;;;;;;;-141.50;100.00;63355.56;5032075;28;20143;-80
2024/03/18 02:17:59;;;;;;;17.25;7.75;;;;;;;-141.50;100.00;63355.56;5028430;28;20507;-82
2024/03/18 02:20:26;;;;;;;18.05;8.00;;;;;;;-141.50;100.00;63355.56;5032522;28;20057;-81
2024/03/18 02:22:55;;;;;;;20.58;8.32;;;;;;;-141.50;100.00;63355.56;5027719;28;20045;-80
2024/03/18 02:25:21;;;;;;;19.35;8.50;;;;;;;-141.50;100.00;63355.56;5016061;28;20822;-79
2024/03/18 02:27:48;;;;;;;16.05;7.78;;;;;;;-141.50;100.00;63355.56;5032592;28;20510;-79
2024/03/18 02:30:14;;;;;;;16.77;7.93;;;;;;;-141.50;100.00;63355.56;5010771;28;20106;-81
2024/03/18 02:32:44;;;;;;;14.60;7.75;;;;;;;-141.50;100.00;63355.56;5027119;28;20209;-80
2024/03/18 02:35:16;;;;;;;18.70;8.10;;;;;;;-141.50;100.00;63355.56;5031386;28;20053;-81
2024/03/18 02:37:45;;;;;;;18.70;7.85;;;;;;;-141.50;100.00;63355.56;5026941;28;20626;-80
2024/03/18 02:40:12;;;;;;;15.77;7.85;;;;;;;-141.50;100.00;63355.56;5027495;28;20055;-81
2024/03/18 02:42:40;;;;;;;18.80;7.97;;;;;;;-141.50;100.00;63355.56;5014210;28;20148;-78
2024/03/18 02:45:08;;;;;;;22.52;7.70;;;;;;;-141.50;100.00;63355.56;5031719;28;20047;-81
2024/03/18 02:47:39;;;;;;;19.10;7.63;;;;;;;-141.50;100.00;63355.56;5028914;28;20132;-80
2024/03/18 02:50:10;;;;;;;20.67;7.88;;;;;;;-141.50;100.00;63355.56;5027979;28;20048;-78
2024/03/18 02:52:40;;;;;;;20.77;8.05;;;;;;;-141.50;100.00;63355.56;5030886;28;20056;-83
2024/03/18 02:55:07;;;;;;;17.38;7.25;;;;;;;-141.50;100.00;63355.56;5030517;28;20045;-81
2024/03/18 02:57:33;;;;;;;15.02;8.15;;;;;;;-141.50;100.00;63355.56;5029403;28;20052;-79
2024/03/18 03:00:00;;;;;;;18.90;7.57;;;;;;;-141.50;100.00;63355.56;5011078;28;20136;-80
2024/03/18 03:02:26;;;;;;;14.48;7.05;;;;;;;-141.50;100.00;63355.56;5031964;28;20125;-79
2024/03/18 03:04:52;;;;;;;15.65;7.63;;;;;;;-141.50;100.00;63355.56;5005396;28;20441;-82
2024/03/18 03:07:18;;;;;;;16.83;7.53;;;;;;;-141.50;100.00;63355.56;5030635;28;20041;-80
2024/03/18 03:09:44;;;;;;;15.30;6.60;;;;;;;-141.50;100.00;63355.56;5032124;28;20045;-82
2024/03/18 03:12:09;;;;;;;13.98;6.82;;;;;;;-141.50;100.00;63355.56;5029147;28;20553;-79
2024/03/18 03:14:35;;;;;;;17.02;7.00;;;;;;;-141.50;100.00;63355.56;5025861;28;20110;-80
2024/03/18 03:17:01;;;;;;;14.60;6.53;;;;;;;-141.50;100.00;63355.56;5031197;28;20463;-80
2024/03/18 03:19:27;;;;;;;17.48;6.95;;;;;;;-141.50;100.00;63355.56;5028151;28;20075;-81
2024/03/18 03:21:53;;;;;;;14.82;6.85;;;;;;;-141.50;100.00;63355.56;5031590;28;20049;-80
2024/03/18 03:24:19;;;;;;;17.63;7.38;;;;;;;-141.50;100.00;63355.56;5028764;28;20087;-80
2024/03/18 03:26:45;;;;;;;15.73;6.82;;;;;;;-141.50;100.00;63355.56;5026744;28;20057;-81
2024/03/18 03:29:12;;;;;;;16.00;6.88;;;;;;;-141.50;100.00;63355.56;5035178;28;20066;-84
2024/03/18 03:31:37;;;;;;;18.20;6.70;;;;;;;-141.50;100.00;63355.56;5032579;28;20059;-82
2024/03/18 03:34:03;;;;;;;16.45;6.55;;;;;;;-141.50;100.00;63355.56;5010917;28;20407;-82
2024/03/18 03:36:30;;;;;;;14.80;6.57;;;;;;;-141.50;100.00;63355.56;5025942;28;20462;-80
2024/03/18 03:38:56;;;;;;;18.98;7.22;;;;;;;-141.50;100.00;63355.56;5030696;28;20063;-81
2024/03/18 03:41:22;;;;;;;14.75;6.95;;;;;;;-141.50;100.00;63355.56;5024767;28;20045;-82
2024/03/18 03:43:48;;;;;;;14.77;6.72;;;;;;;-141.50;100.00;63355.56;5019746;28;20079;-82
2024/03/18 03:46:14;;;;;;;11.45;6.43;;;;;;;-141.50;100.00;63355.56;5013652;28;20541;-81
2024/03/18 03:48:39;;;;;;;12.57;6.38;;;;;;;-141.50;100.00;63355.56;5029747;28;20049;-80
2024/03/18 03:51:05;;;;;;;11.30;5.82;;;;;;;-141.50;100.00;63355.56;4995873;28;20053;-79
2024/03/18 03:53:31;;;;;;;14.57;6.13;;;;;;;-141.50;100.00;63355.56;5028713;28;20067;-79
2024/03/18 03:55:57;;;;;;;13.70;6.68;;;;;;;-141.50;100.00;63355.56;5021629;28;20053;-78
2024/03/18 03:58:24;;;;;;;13.82;6.57;;;;;;;-141.50;100.00;63355.56;5010876;28;20099;-81
2024/03/18 04:00:50;;;;;;;18.20;6.55;;;;;;;-141.50;100.00;63355.56;5030119;28;20053;-82
2024/03/18 04:03:19;;;;;;;20.85;6.78;;;;;;;-141.50;100.00;63355.56;5014659;28;20453;-82
2024/03/18 04:05:45;;;;;;;16.95;6.65;;;;;;;-141.50;100.00;63355.56;5019875;28;20497;-82
2024/03/18 04:08:11;;;;;;;16.00;6.65;;;;;;;-141.50;100.00;63355.56;4982354;28;20053;-81
2024/03/18 04:10:38;;;;;;;16.67;6.45;;;;;;;-141.50;100.00;63355.56;5027797;28;20464;-82
2024/03/18 04:13:04;;;;;;;13.15;6.35;;;;;;;-141.50;100.00;63355.56;5030212;28;20043;-82
2024/03/18 04:15:30;;;;;;;15.23;5.95;;;;;;;-141.50;100.00;63355.56;5047034;28;20052;-80
2024/03/18 04:17:56;;;;;;;12.82;6.63;;;;;;;-141.50;100.00;63355.56;5031215;28;20040;-82
2024/03/18 04:20:22;;;;;;;14.30;6.38;;;;;;;-141.50;100.00;63355.56;5014422;28;20124;-83
2024/03/18 04:22:50;;;;;;;15.48;6.43;;;;;;;-141.50;100.00;63355.56;5027851;28;20126;-81
2024/03/18 04:25:17;;;;;;;15.45;5.80;;;;;;;-141.50;100.00;63355.56;5031602;28;20588;-79
2024/03/18 04:27:47;;;;;;;15.80;5.93;;;;;;;-141.50;100.00;63355.56;5033753;28;20057;-81
2024/03/18 04:30:17;;;;;;;16.45;6.35;;;;;;;-141.50;100.00;63355.56;5030814;28;20051;-80
2024/03/18 04:32:43;;;;;;;13.70;5.90;;;;;;;-141.50;100.00;63355.56;5000928;28;20053;-79
2024/03/18 04:35:10;;;;;;;17.00;6.13;;;;;;;-141.50;100.00;63355.56;5023822;28;20673;-81
2024/03/18 04:37:51;;;;;;;17.92;5.57;;;;;;;-141.50;100.00;63355.56;5027056;28;20053;-81
2024/03/18 04:40:19;;;;;;;12.55;5.75;;;;;;;-141.50;100.00;63355.56;5011169;28;20045;-82
2024/03/18 04:42:45;;;;;;;16.98;6.05;;;;;;;-141.50;100.00;63355.56;5003113;28;20545;-80
2024/03/18 04:45:15;;;;;;;16.65;6.45;;;;;;;-141.50;100.00;63355.56;4995597;28;20092;-80
2024/03/18 04:47:44;;;;;;;12.63;5.78;;;;;;;-141.50;100.00;63355.56;5023692;28;20169;-81
2024/03/18 04:50:12;;;;;;;17.90;6.32;;;;;;;-141.50;100.00;63355.56;5009447;28;20107;-79
2024/03/18 04:52:38;;;;;;;15.30;6.05;;;;;;;-141.50;100.00;63355.56;5010709;28;20056;-79
2024/03/18 04:55:08;;;;;;;12.80;6.35;;;;;;;-141.50;100.00;63355.56;5006763;28;20436;-79
2024/03/18 04:57:35;;;;;;;15.70;6.47;;;;;;;-141.50;100.00;63355.56;5011408;28;20436;-81
2024/03/18 05:00:06;;;;;;;17.75;6.50;;;;;;;-141.50;100.00;63355.56;5014807;28;20075;-80
2024/03/18 05:02:31;;;;;;;13.15;6.22;;;;;;;-141.50;100.00;63355.56;5045819;28;20434;-80
2024/03/18 05:04:57;;;;;;;12.32;5.95;;;;;;;-141.50;100.00;63355.56;5029525;28;20047;-81
2024/03/18 05:07:23;;;;;;;13.85;6.22;;;;;;;-141.50;100.00;63355.56;5030841;28;20129;-81
2024/03/18 05:09:53;;;;;;;16.98;5.97;;;;;;;-141.50;100.00;63355.56;5034742;28;20067;-83
2024/03/18 05:12:19;;;;;;;13.10;5.82;;;;;;;-141.50;100.00;63355.56;5034689;28;20104;-82
2024/03/18 05:14:45;;;;;;;16.65;5.75;;;;;;;-141.50;100.00;63355.56;5030937;28;20053;-79
2024/03/18 05:17:11;;;;;;;16.50;5.80;;;;;;;-141.50;100.00;63355.56;5033563;28;20040;-81
2024/03/18 05:19:37;;;;;;;12.65;5.30;;;;;;;-141.50;100.00;63355.56;5033170;28;20511;-80
2024/03/18 05:22:03;;;;;;;14.10;5.82;;;;;;;-141.50;100.00;63355.56;5032249;28;20087;-82
2024/03/18 05:24:28;;;;;;;13.38;5.93;;;;;;;-141.50;100.00;63355.56;5016693;28;21358;-83
2024/03/18 05:26:54;;;;;;;16.10;6.28;;;;;;;-141.50;100.00;63355.56;5013946;28;20057;-80
2024/03/18 05:29:20;;;;;;;12.38;5.88;;;;;;;-141.50;100.00;63355.56;5026496;28;20045;-78
2024/03/18 05:31:46;;;;;;;20.70;6.50;;;;;;;-141.50;100.00;63355.56;5022943;28;20060;-78
2024/03/18 05:34:12;;;;;;;15.43;6.20;;;;;;;-141.50;100.00;63355.56;5023695;28;20714;-80
2024/03/18 05:36:38;;;;;;;16.15;6.32;;;;;;;-141.50;100.00;63355.56;5003128;28;20107;-80
2024/03/18 05:39:04;;;;;;;12.70;5.72;;;;;;;-141.50;100.00;63355.56;5010558;28;20040;-80
2024/03/18 05:41:30;;;;;;;14.82;6.10;;;;;;;-141.50;100.00;63355.56;4995996;28;20410;-77
2024/03/18 05:43:56;;;;;;;14.55;6.13;;;;;;;-141.50;100.00;63355.56;5028913;28;20044;-79
2024/03/18 05:46:22;;;;;;;13.73;6.07;;;;;;;-141.50;100.00;63355.56;5029369;28;20051;-80
2024/03/18 05:48:48;;;;;;;14.80;6.32;;;;;;;-141.50;100.00;63355.56;5030307;28;20057;-77
2024/03/18 05:51:14;;;;;;;13.07;6.18;;;;;;;-141.50;100.00;63355.56;5032153;28;20545;-82
2024/03/18 05:53:40;;;;;;;17.67;6.50;;;;;;;-141.50;100.00;63355.56;5021570;28;20056;-80
2024/03/18 05:56:06;;;;;;;14.00;6.10;;;;;;;-141.50;100.00;63355.56;5031630;28;20049;-82
2024/03/18 05:58:39;;;;;;;15.65;6.13;;;;;;;-141.50;100.00;63355.56;5013717;28;20041;-80
2024/03/18 06:01:11;;;;;;;14.45;5.78;;;;;;;-141.50;100.00;63355.56;5023983;28;20097;-80
2024/03/18 06:03:38;;;;;;;16.60;6.53;;;;;;;-141.50;100.00;63355.56;5022103;28;20049;-78
2024/03/18 06:06:06;;;;;;;23.75;6.15;;;;;;;-141.50;100.00;63355.56;5003060;28;20073;-80
2024/03/18 06:08:34;;;;;;;16.23;6.65;;;;;;;-141.50;100.00;63355.56;5009901;28;20636;-80
2024/03/18 06:11:00;;;;;;;12.60;5.80;;;;;;;-141.50;100.00;63355.56;5026901;28;20047;-81
2024/03/18 06:13:26;;;;;;;16.60;6.97;;;;;;;-141.50;100.00;63355.56;5027950;28;20615;-80
2024/03/18 06:15:52;;;;;;;14.45;5.97;;;;;;;-141.50;100.00;63355.56;5034086;28;20068;-80
2024/03/18 06:18:18;;;;;;;15.55;6.18;;;;;;;-141.50;100.00;63355.56;5015888;28;20037;-80
2024/03/18 06:20:48;;;;;;;12.15;6.70;;;;;;;-141.50;100.00;63355.56;5032365;28;20111;-82
2024/03/18 06:23:18;;;;;;;14.45;6.50;;;;;;;-141.50;100.00;63355.56;5033798;28;20617;-77
2024/03/18 06:25:59;;;;;;;15.90;7.10;;;;;;;-141.50;100.00;63355.56;5039009;28;20057;-81
2024/03/18 06:28:29;;;;;;;15.00;6.70;;;;;;;-141.50;100.00;63355.56;5020393;28;20239;-79
2024/03/18 06:30:58;;;;;;;14.20;6.68;;;;;;;-141.50;100.00;63355.56;5011383;28;20049;-80
2024/03/18 06:33:26;;;;;;;13.63;6.45;;;;;;;-141.50;100.00;63355.56;5028578;28;20067;-82
2024/03/18 06:35:56;;;;;;;14.45;6.75;;;;;;;-141.50;100.00;63355.56;5013750;28;20422;-81
2024/03/18 06:38:23;;;;;;;13.40;6.80;;;;;;;-141.50;100.00;63355.56;5011309;28;20043;-81
2024/03/18 06:40:49;;;;;;;16.48;6.43;;;;;;;-141.50;100.00;63355.56;5029248;28;20045;-80
2024/03/18 06:43:15;;;;;;;14.65;7.20;;;;;;;-141.50;100.00;63355.56;5027715;28;20545;-80
2024/03/18 06:45:41;;;;;;;15.77;7.07;;;;;;;-141.50;100.00;63355.56;5014485;28;20076;-80
2024/03/18 06:48:07;;;;;;;18.30;7.60;;;;;;;-141.50;100.00;63355.56;5036682;28;20040;-78
2024/03/18 06:50:37;;;;;;;19.83;7.90;;;;;;;-141.50;100.00;63355.56;5017141;28;20039;-80
2024/03/18 06:53:04;;;;;;;19.08;7.70;;;;;;;-141.50;100.00;63355.56;5026709;28;20055;-81
2024/03/18 06:55:30;;;;;;;21.65;8.18;;;;;;;-141.50;100.00;63355.56;5014780;28;20049;-82
2024/03/18 06:57:57;;;;;;;19.95;7.82;;;;;;;-141.50;100.00;63355.56;5020422;28;20045;-79
2024/03/18 07:00:23;;;;;;;18.15;8.00;;;;;;;-141.50;100.00;63355.56;5031370;28;20040;-82
2024/03/18 07:02:50;;;;;;;18.17;7.78;;;;;;;-141.50;100.00;63355.56;5031725;28;20099;-81
2024/03/18 07:05:20;;;;;;;16.83;8.48;;;;;;;-141.50;100.00;63355.56;5031697;28;20041;-83
2024/03/18 07:07:47;;;;;;;20.42;7.43;;;;;;;-141.50;100.00;63355.56;5014611;28;20049;-80
2024/03/18 07:10:13;;;;;;;17.73;7.55;;;;;;;-141.50;100.00;63355.56;5004472;28;20048;-81
2024/03/18 07:12:40;;;;;;;15.63;7.68;;;;;;;-141.50;100.00;63355.56;5027563;28;20059;-81
2024/03/18 07:15:07;;;;;;;19.88;8.10;;;;;;;-141.50;100.00;63355.56;5010013;28;20045;-81
2024/03/18 07:17:33;;;;;;;18.92;7.93;;;;;;;-141.50;100.00;63355.56;5028454;28;20036;-79
2024/03/18 07:19:59;;;;;;;15.85;6.93;;;;;;;-141.50;100.00;63355.56;5012572;28;20535;-81
2024/03/18 07:22:25;;;;;;;16.33;6.70;;;;;;;-141.50;100.00;63355.56;4996042;28;20040;-79
2024/03/18 07:24:52;;;;;;;18.90;7.63;;;;;;;-141.50;100.00;63355.56;5027969;28;20109;-80
2024/03/18 07:27:18;;;;;;;19.33;7.28;;;;;;;-141.50;100.00;63355.56;5011919;28;20048;-79
2024/03/18 07:29:43;;;;;;;15.95;6.20;;;;;;;-141.50;100.00;63355.56;5049780;28;20052;-80
2024/03/18 07:32:11;;;;;;;14.00;6.47;;;;;;;-141.50;100.00;63355.56;5029516;28;20136;-79
2024/03/18 07:34:38;;;;;;;19.42;6.88;;;;;;;-141.50;100.00;63355.56;5010038;28;20049;-79
2024/03/18 07:37:04;;;;;;;14.38;6.60;;;;;;;-141.50;100.00;63355.56;5027757;28;20047;-79
2024/03/18 07:39:30;;;;;;;13.75;6.15;;;;;;;-141.50;100.00;63355.56;5024340;28;20045;-79
2024/03/18 07:41:57;;;;;;;14.43;6.35;;;;;;;-141.50;100.00;63355.56;5010793;28;20053;-80
2024/03/18 07:44:27;;;;;;;15.25;5.85;;;;;;;-141.50;100.00;63355.56;5010754;28;20564;-79
2024/03/18 07:46:52;;;;;;;14.75;5.85;;;;;;;-141.50;100.00;63355.56;5028067;28;20107;-80
2024/03/18 07:49:21;;;;;;;17.45;5.95;;;;;;;-141.50;100.00;63355.56;5024955;28;20044;-80
2024/03/18 07:51:47;;;;;;;14.88;5.50;;;;;;;-141.50;100.00;63355.56;5025930;28;20051;-80
2024/03/18 07:54:14;;;;;;;13.82;5.05;;;;;;;-141.50;100.00;63355.56;5025972;28;20047;-80
2024/03/18 07:56:40;;;;;;;13.13;5.07;;;;;;;-141.50;100.00;63355.56;5027777;28;20135;-81
2024/03/18 07:59:10;;;;;;;11.23;4.93;;;;;;;-141.50;100.00;63355.56;5031695;28;20045;-79
2024/03/18 08:01:36;;;;;;;10.35;5.00;;;;;;;-141.50;100.00;63355.56;5027046;28;20037;-78
2024/03/18 08:04:01;;;;;;;13.38;4.68;;;;;;;-141.50;100.00;63355.56;5024328;28;20067;-79
2024/03/18 08:06:27;;;;;;;13.90;5.30;;;;;;;-141.50;100.00;63355.56;5027387;28;20511;-79
2024/03/18 08:08:54;;;;;;;16.88;5.22;;;;;;;-141.50;100.00;63355.56;5006607;28;20148;-82
2024/03/18 08:11:19;;;;;;;14.57;4.82;;;;;;;-141.50;100.00;63355.56;5012164;28;20098;-80
2024/03/18 08:13:45;;;;;;;16.45;4.57;;;;;;;-141.50;100.00;63355.56;5028788;28;20519;-80
2024/03/18 08:16:11;;;;;;;14.13;4.40;;;;;;;-141.50;100.00;63355.56;5013790;28;20443;-79
2024/03/18 08:18:37;;;;;;;10.25;4.25;;;;;;;-141.50;100.00;63355.56;5033642;28;20076;-81
2024/03/18 08:21:03;;;;;;;13.75;4.65;;;;;;;-141.50;100.00;63355.56;5030239;28;20557;-79
2024/03/18 08:23:30;;;;;;;12.80;5.20;;;;;;;-141.50;100.00;63355.56;5030284;28;20068;-78
2024/03/18 08:25:55;;;;;;;9.50;4.50;;;;;;;-141.50;100.00;63355.56;5033322;28;20076;-80
2024/03/18 08:28:21;;;;;;;10.30;4.43;;;;;;;-141.50;100.00;63355.56;5032935;28;20645;-81
2024/03/18 08:30:47;;;;;;;11.70;4.57;;;;;;;-141.50;100.00;63355.56;5031151;28;20056;-80
2024/03/18 08:33:13;;;;;;;13.02;4.57;;;;;;;-141.50;100.00;63355.56;5033960;28;20580;-78
2024/03/18 08:35:38;;;;;;;14.70;4.22;;;;;;;-141.50;100.00;63355.56;5028638;28;20099;-80
2024/03/18 08:38:05;;;;;;;13.25;4.68;;;;;;;-141.50;100.00;63355.56;5033421;28;20075;-82
2024/03/18 08:40:31;;;;;;;14.48;5.30;;;;;;;-141.50;100.00;63355.56;5043069;28;20059;-79
2024/03/18 08:42:56;;;;;;;13.82;4.00;;;;;;;-141.50;100.00;63355.56;5046616;28;20076;-78
2024/03/18 08:45:22;;;;;;;11.27;4.43;;;;;;;-141.50;100.00;63355.56;5033860;28;20041;-81
2024/03/18 08:47:48;;;;;;;12.50;4.80;;;;;;;-141.50;100.00;63355.56;5031854;28;20095;-81
2024/03/18 08:50:14;;;;;;;10.55;4.32;;;;;;;-141.50;100.00;63355.56;5030597;28;20041;-80
2024/03/18 08:52:41;;;;;;;12.00;4.28;;;;;;;-141.50;100.00;63355.56;5030998;28;20053;-82
2024/03/18 08:55:07;;;;;;;10.88;3.92;;;;;;;-141.50;100.00;63355.56;5033536;28;20045;-79
2024/03/18 08:57:33;;;;;;;10.23;4.35;;;;;;;-141.50;100.00;63355.56;5014399;28;20037;-80
2024/03/18 08:59:59;;;;;;;14.25;4.18;;;;;;;-141.50;100.00;63355.56;5030575;28;20045;-80
2024/03/18 09:02:25;;;;;;;10.98;4.03;;;;;;;-141.50;100.00;63355.56;5015244;28;20418;-78
2024/03/18 09:04:51;;;;;;;12.75;4.68;;;;;;;-141.50;100.00;63355.56;5029411;28;20060;-79
2024/03/18 09:07:17;;;;;;;11.57;4.35;;;;;;;-141.50;100.00;63355.56;5031087;28;20538;-79
2024/03/18 09:09:42;;;;;;;13.68;3.90;;;;;;;-141.50;100.00;63355.56;5014226;28;20045;-80
2024/03/18 09:12:08;;;;;;;13.98;3.90;;;;;;;-141.50;100.00;63355.56;5013633;28;20107;-81
2024/03/18 09:14:34;;;;;;;12.27;3.70;;;;;;;-141.50;100.00;63355.56;5030850;28;20160;-78
2024/03/18 09:17:03;;;;;;;12.43;4.18;;;;;;;-141.50;100.00;63355.56;5033999;28;20045;-78
2024/03/18 09:19:29;;;;;;;13.93;3.75;;;;;;;-141.50;100.00;63355.56;5028389;28;20095;-80
2024/03/18 09:21:56;;;;;;;12.52;4.35;;;;;;;-141.50;100.00;63355.56;5012643;28;20053;-79
2024/03/18 09:24:22;;;;;;;8.68;4.00;;;;;;;-141.50;100.00;63355.56;5030258;28;20045;-80
2024/03/18 09:26:48;;;;;;;12.02;3.95;;;;;;;-141.50;100.00;63355.56;5041786;28;20068;-78
2024/03/18 09:29:14;;;;;;;12.40;3.90;;;;;;;-141.50;100.00;63355.56;5015934;28;20033;-80
2024/03/18 09:31:40;;;;;;;12.80;3.95;;;;;;;-141.50;100.00;63355.56;5025061;28;20049;-81
2024/03/18 09:34:13;;;;;;;11.05;3.70;;;;;;;-141.50;100.00;63355.56;5014609;28;20056;-77
2024/03/18 09:36:39;;;;;;;9.85;3.45;;;;;;;-141.50;100.00;63355.56;5040752;28;20049;-78
2024/03/18 09:39:05;;;;;;;11.30;3.72;;;;;;;-141.50;100.00;63355.56;5015934;28;20045;-80
2024/03/18 09:41:35;;;;;;;10.70;3.72;;;;;;;-141.50;100.00;63355.56;5026272;28;20499;-80
2024/03/18 09:44:01;;;;;;;15.27;3.38;;;;;;;-141.50;100.00;63355.56;5006683;28;20073;-80
2024/03/18 09:46:27;;;;;;;9.50;3.55;;;;;;;-141.50;100.00;63355.56;5030002;28;20048;-80
2024/03/18 09:48:54;;;;;;;11.27;3.03;;;;;;;-141.50;100.00;63355.56;5031179;28;21652;-80
2024/03/18 09:51:21;;;;;;;7.93;3.10;;;;;;;-141.50;100.00;63355.56;5014897;28;20124;-79
2024/03/18 09:53:47;;;;;;;11.35;3.28;;;;;;;-141.50;100.00;63355.56;5013119;28;20045;-78
2024/03/18 09:56:16;;;;;;;13.45;3.28;;;;;;;-141.50;100.00;63355.56;5028604;28;20045;-82
2024/03/18 09:58:42;;;;;;;9.10;2.80;;;;;;;-141.50;100.00;63355.56;5012577;28;20040;-80
2024/03/18 10:01:12;;;;;;;10.77;3.40;;;;;;;-141.50;100.00;63355.56;5027118;28;20040;-82
2024/03/18 10:03:44;;;;;;;9.85;2.92;;;;;;;-141.50;100.00;63355.56;5016190;28;20041;-80
2024/03/18 10:06:12;;;;;;;7.32;2.67;;;;;;;-141.50;100.00;63355.56;5031487;28;20049;-79
2024/03/18 10:08:39;;;;;;;9.18;2.95;;;;;;;-141.50;100.00;63355.56;5015073;28;20276;-79
2024/03/18 10:11:09;;;;;;;9.85;2.97;;;;;;;-141.50;100.00;63355.56;5032873;28;20048;-79
2024/03/18 10:13:35;;;;;;;13.27;3.10;;;;;;;-141.50;100.00;63355.56;5029993;28;20049;-81
2024/03/18 10:16:01;;;;;;;7.95;2.83;;;;;;;-141.50;100.00;63355.56;5035794;28;20028;-81
2024/03/18 10:18:27;;;;;;;9.48;2.60;;;;;;;-141.50;100.00;63355.56;5031422;28;20045;-78
2024/03/18 10:20:54;;;;;;;7.07;2.63;;;;;;;-141.50;100.00;63355.56;5018600;28;20045;-78
2024/03/18 10:23:20;;;;;;;6.00;2.30;;;;;;;-141.50;100.00;63355.56;5029025;28;20049;-80
2024/03/18 10:25:46;;;;;;;9.45;2.78;;;;;;;-141.50;100.00;63355.56;5029024;28;20103;-79
2024/03/18 10:28:13;;;;;;;12.07;2.85;;;;;;;-141.50;100.00;63355.56;5029831;28;20674;-79
2024/03/18 10:30:39;;;;;;;8.23;2.60;;;;;;;-141.50;100.00;63355.56;5029354;28;20041;-80
2024/03/18 10:33:06;;;;;;;11.82;2.53;;;;;;;-141.50;100.00;63355.56;5014664;28;20048;-79
2024/03/18 10:35:34;;;;;;;5.20;1.95;;;;;;;-141.50;100.00;63355.56;5030783;28;20504;-78
2024/03/18 10:38:07;;;;;;;6.45;2.28;;;;;;;-141.50;100.00;63355.56;5025419;28;20618;-80
2024/03/18 10:40:34;;;;;;;4.35;1.73;;;;;;;-141.50;100.00;63355.56;5030916;28;20132;-79
2024/03/18 10:43:04;;;;;;;10.10;2.47;;;;;;;-141.50;100.00;63355.56;5010272;28;20040;-80
2024/03/18 10:45:35;;;;;;;6.65;2.42;;;;;;;-141.50;100.00;63355.56;5031258;28;20068;-78
2024/03/18 10:48:07;;;;;;;5.85;1.77;;;;;;;-141.50;100.00;63355.56;5030758;28;20049;-78
2024/03/18 10:50:34;;;;;;;5.03;1.80;;;;;;;-141.50;100.00;63355.56;5014304;28;20041;-80
2024/03/18 10:53:01;;;;;;;8.07;2.13;;;;;;;-141.50;100.00;63355.56;5022072;28;20064;-80
2024/03/18 10:55:32;;;;;;;5.13;1.90;;;;;;;-141.50;100.00;63355.56;5030761;28;20039;-79
2024/03/18 10:58:02;;;;;;;6.28;2.33;;;;;;;-141.50;100.00;63355.56;5025972;28;20128;-78
2024/03/18 11:00:29;;;;;;;4.90;1.88;;;;;;;-141.50;100.00;63355.56;5032617;28;20037;-81